createdAt,value
2018-12-02T00:00:48.937Z,98348.72
2018-12-02T00:03:18.494Z,98359.63
2018-12-02T00:05:45.951Z,98353.78
2018-12-02T00:08:14.438Z,98346.58
2018-12-02T00:10:41.899Z,98348.66
2018-12-02T00:13:12.048Z,98348.58
2018-12-02T00:15:40.642Z,98346.07
2018-12-02T00:18:08.105Z,98339.86
2018-12-02T00:20:35.536Z,98335.44
2018-12-02T00:23:02.998Z,98338.72
2018-12-02T00:25:30.506Z,98344.52
2018-12-02T00:27:57.948Z,98331.78
2018-12-02T00:30:25.440Z,98330.83
2018-12-02T00:32:52.931Z,98325.70
2018-12-02T00:35:21.074Z,98328.09
2018-12-02T00:37:48.546Z,98319.54
2018-12-02T00:40:15.979Z,98322.26
2018-12-02T00:42:43.459Z,98316.95
2018-12-02T00:45:10.923Z,98319.41
2018-12-02T00:47:38.411Z,98319.88
2018-12-02T00:50:05.855Z,98321.75
2018-12-02T00:52:33.331Z,98316.74
2018-12-02T00:55:00.816Z,98309.36
2018-12-02T00:57:28.285Z,98312.77
2018-12-02T00:59:56.475Z,98300.58
2018-12-02T01:02:23.924Z,98305.67
2018-12-02T01:04:53.386Z,98288.64
2018-12-02T01:07:20.856Z,98289.16
2018-12-02T01:09:48.330Z,98275.12
2018-12-02T01:12:15.894Z,98273.51
2018-12-02T01:14:43.321Z,98259.34
2018-12-02T01:17:10.846Z,98252.83
2018-12-02T01:19:38.365Z,98257.67
2018-12-02T01:22:05.841Z,98249.46
2018-12-02T01:24:33.337Z,98252.83
2018-12-02T01:27:00.820Z,98248.93
2018-12-02T01:29:28.307Z,98250.34
2018-12-02T01:31:55.763Z,98232.03
2018-12-02T01:34:23.227Z,98227.83
2018-12-02T01:36:50.658Z,98229.80
2018-12-02T01:39:18.805Z,98230.41
2018-12-02T01:41:46.310Z,98224.56
2018-12-02T01:44:13.785Z,98224.63
2018-12-02T01:46:41.229Z,98219.90
2018-12-02T01:49:08.715Z,98214.47
2018-12-02T01:51:36.212Z,98215.76
2018-12-02T01:54:05.503Z,98215.21
2018-12-02T01:56:32.963Z,98218.34
2018-12-02T01:59:00.388Z,98208.41
2018-12-02T02:01:27.820Z,98200.47
2018-12-02T02:03:55.311Z,98196.94
2018-12-02T02:06:22.773Z,98188.95
2018-12-02T02:08:50.286Z,98176.81
2018-12-02T02:11:17.803Z,98177.64
2018-12-02T02:13:45.403Z,98177.48
2018-12-02T02:16:12.903Z,98179.36
2018-12-02T02:18:40.360Z,98172.97
2018-12-02T02:21:07.865Z,98171.39
2018-12-02T02:23:35.369Z,98167.64
2018-12-02T02:26:02.846Z,98157.08
2018-12-02T02:28:30.303Z,98155.10
2018-12-02T02:30:58.422Z,98143.65
2018-12-02T02:33:25.880Z,98148.87
2018-12-02T02:35:53.433Z,98144.92
2018-12-02T02:38:20.839Z,98142.33
2018-12-02T02:40:48.296Z,98136.71
2018-12-02T02:43:15.727Z,98133.72
2018-12-02T02:45:43.201Z,98129.28
2018-12-02T02:48:10.629Z,98122.95
2018-12-02T02:50:38.085Z,98109.92
2018-12-02T02:53:06.729Z,98101.14
2018-12-02T02:55:34.194Z,98090.31
2018-12-02T02:58:01.664Z,98092.23
2018-12-02T03:00:29.193Z,98089.00
2018-12-02T03:03:00.859Z,98092.88
2018-12-02T03:05:28.366Z,98097.14
2018-12-02T03:07:55.905Z,98091.39
2018-12-02T03:10:23.317Z,98083.75
2018-12-02T03:12:51.845Z,98090.11
2018-12-02T03:15:19.296Z,98092.08
2018-12-02T03:17:46.726Z,98080.02
2018-12-02T03:20:14.174Z,98081.98
2018-12-02T03:22:41.595Z,98079.55
2018-12-02T03:25:09.045Z,98082.84
2018-12-02T03:27:36.492Z,98081.30
2018-12-02T03:30:03.935Z,98071.73
2018-12-02T03:32:31.382Z,98071.13
2018-12-02T03:34:58.861Z,98080.14
2018-12-02T03:37:26.324Z,98074.02
2018-12-02T03:39:53.774Z,98071.67
2018-12-02T03:42:21.241Z,98069.20
2018-12-02T03:44:49.523Z,98068.34
2018-12-02T03:47:16.956Z,98052.69
2018-12-02T03:49:44.399Z,98066.02
2018-12-02T03:52:11.826Z,98051.31
2018-12-02T03:54:39.278Z,98055.40
2018-12-02T03:57:06.727Z,98047.44
2018-12-02T03:59:34.191Z,98046.44
2018-12-02T04:02:01.619Z,98041.45
2018-12-02T04:04:29.150Z,98043.97
2018-12-02T04:06:56.557Z,98029.78
2018-12-02T04:09:24.010Z,98028.48
2018-12-02T04:11:51.437Z,98018.97
2018-12-02T04:14:18.867Z,98022.24
2018-12-02T04:16:46.326Z,98012.28
2018-12-02T04:19:14.351Z,98001.34
2018-12-02T04:21:41.815Z,98008.46
2018-12-02T04:27:06.567Z,98005.45
2018-12-02T04:29:34.015Z,98000.38
2018-12-02T04:32:01.460Z,97999.39
2018-12-02T04:34:28.888Z,97998.83
2018-12-02T04:36:56.330Z,97998.27
2018-12-02T04:39:23.771Z,97987.11
2018-12-02T04:41:53.069Z,97984.25
2018-12-02T04:44:20.491Z,97989.09
2018-12-02T04:46:47.957Z,97992.94
2018-12-02T04:49:15.412Z,97985.50
2018-12-02T04:51:42.839Z,97981.70
2018-12-02T04:54:10.290Z,97978.27
2018-12-02T04:56:37.768Z,97973.55
2018-12-02T04:59:05.198Z,97968.47
2018-12-02T05:01:32.668Z,97968.31
2018-12-02T05:04:00.107Z,97957.67
2018-12-02T05:06:27.550Z,97958.58
2018-12-02T05:08:55.001Z,97940.88
2018-12-02T05:11:22.474Z,97936.44
2018-12-02T05:13:49.912Z,97945.22
2018-12-02T05:16:17.362Z,97944.36
2018-12-02T05:18:44.801Z,97934.61
2018-12-02T05:21:12.241Z,97938.33
2018-12-02T05:23:39.686Z,97930.88
2018-12-02T05:26:07.136Z,97923.56
2018-12-02T05:28:34.592Z,97928.14
2018-12-02T05:31:02.042Z,97922.08
2018-12-02T05:33:29.471Z,97922.47
2018-12-02T05:35:56.919Z,97915.32
2018-12-02T05:38:24.337Z,97918.85
2018-12-02T05:40:51.778Z,97911.22
2018-12-02T05:43:19.199Z,97903.14
2018-12-02T05:45:47.604Z,97905.28
2018-12-02T05:48:16.789Z,97897.09
2018-12-02T05:50:44.291Z,97896.86
2018-12-02T05:53:11.708Z,97887.35
2018-12-02T05:55:39.142Z,97876.21
2018-12-02T05:58:06.573Z,97871.99
2018-12-02T06:00:34.034Z,97869.31
2018-12-02T06:03:01.460Z,97870.75
2018-12-02T06:05:28.923Z,97860.40
2018-12-02T06:07:56.367Z,97855.08
2018-12-02T06:10:23.828Z,97862.38
2018-12-02T06:12:51.272Z,97857.59
2018-12-02T06:15:18.694Z,97858.13
2018-12-02T06:17:46.166Z,97848.42
2018-12-02T06:20:13.601Z,97846.58
2018-12-02T06:22:41.049Z,97845.45
2018-12-02T06:25:08.467Z,97840.34
2018-12-02T06:27:35.889Z,97843.87
2018-12-02T06:30:03.345Z,97839.34
2018-12-02T06:32:30.816Z,97843.85
2018-12-02T06:34:58.252Z,97849.56
2018-12-02T06:37:25.699Z,97850.86
2018-12-02T06:39:53.174Z,97847.20
2018-12-02T06:42:20.588Z,97851.44
2018-12-02T06:44:48.023Z,97853.67
2018-12-02T06:47:15.460Z,97851.33
2018-12-02T06:49:42.926Z,97842.61
2018-12-02T06:52:10.337Z,97844.75
2018-12-02T06:54:39.638Z,97841.27
2018-12-02T06:57:09.046Z,97844.60
2018-12-02T06:59:36.648Z,97842.59
2018-12-02T07:02:05.509Z,97834.58
2018-12-02T07:04:33.581Z,97837.83
2018-12-02T07:07:01.139Z,97837.06
2018-12-02T07:09:28.606Z,97828.99
2018-12-02T07:11:56.039Z,97832.56
2018-12-02T07:14:23.483Z,97821.80
2018-12-02T07:16:50.899Z,97825.22
2018-12-02T07:19:20.647Z,97836.33
2018-12-02T07:21:49.323Z,97829.30
2018-12-02T07:24:18.704Z,97819.39
2018-12-02T07:26:46.294Z,97826.97
2018-12-02T07:29:13.726Z,97813.97
2018-12-02T07:31:41.169Z,97826.92
2018-12-02T07:34:08.610Z,97818.40
2018-12-02T07:36:36.062Z,97817.73
2018-12-02T07:39:03.498Z,97817.76
2018-12-02T07:41:30.932Z,97823.16
2018-12-02T07:43:58.364Z,97815.41
2018-12-02T07:46:25.788Z,97812.89
2018-12-02T07:48:53.274Z,97820.16
2018-12-02T07:51:21.534Z,97813.03
2018-12-02T07:53:50.189Z,97812.25
2018-12-02T07:56:17.638Z,97811.11
2018-12-02T07:58:45.068Z,97809.75
2018-12-02T08:01:13.552Z,97819.59
2018-12-02T08:03:40.970Z,97811.06
2018-12-02T08:06:08.410Z,97812.52
2018-12-02T08:08:35.921Z,97807.14
2018-12-02T08:11:03.399Z,97807.75
2018-12-02T08:13:30.840Z,97803.54
2018-12-02T08:16:01.877Z,97799.46
2018-12-02T08:18:29.360Z,97802.88
2018-12-02T08:20:56.783Z,97801.97
2018-12-02T08:23:27.346Z,97813.16
2018-12-02T08:25:54.784Z,97802.16
2018-12-02T08:28:22.245Z,97807.48
2018-12-02T08:30:50.289Z,97807.84
2018-12-02T08:33:17.773Z,97814.97
2018-12-02T08:35:45.243Z,97811.31
2018-12-02T08:38:12.694Z,97809.66
2018-12-02T08:40:40.162Z,97812.83
2018-12-02T08:43:07.622Z,97803.92
2018-12-02T08:45:35.928Z,97804.63
2018-12-02T08:48:03.472Z,97809.36
2018-12-02T08:50:30.908Z,97814.00
2018-12-02T08:52:59.474Z,97817.20
2018-12-02T08:55:26.956Z,97808.64
2018-12-02T08:57:54.419Z,97804.87
2018-12-02T09:00:21.858Z,97802.48
2018-12-02T09:02:49.339Z,97810.62
2018-12-02T09:05:16.759Z,97809.36
2018-12-02T09:07:47.025Z,97815.37
2018-12-02T09:10:15.435Z,97810.78
2018-12-02T09:12:42.901Z,97809.66
2018-12-02T09:15:10.341Z,97811.32
2018-12-02T09:17:37.776Z,97806.41
2018-12-02T09:20:07.093Z,97822.88
2018-12-02T09:22:34.540Z,97816.03
2018-12-02T09:25:01.994Z,97819.92
2018-12-02T09:27:29.487Z,97820.67
2018-12-02T09:29:56.922Z,97824.00
2018-12-02T09:32:24.415Z,97814.63
2018-12-02T09:34:51.840Z,97812.58
2018-12-02T09:37:19.289Z,97813.95
2018-12-02T09:39:47.495Z,97811.14
2018-12-02T09:42:18.388Z,97820.94
2018-12-02T09:44:45.870Z,97812.72
2018-12-02T09:47:13.290Z,97821.36
2018-12-02T09:49:40.797Z,97819.20
2018-12-02T09:52:08.279Z,97810.23
2018-12-02T09:54:39.867Z,97796.04
2018-12-02T09:57:07.314Z,97791.73
2018-12-02T09:59:34.781Z,97799.70
2018-12-02T10:02:02.219Z,97812.30
2018-12-02T10:04:30.892Z,97817.38
2018-12-02T10:06:58.324Z,97807.57
2018-12-02T10:09:27.106Z,97808.09
2018-12-02T10:11:54.546Z,97807.90
2018-12-02T10:14:22.023Z,97803.67
2018-12-02T10:16:49.476Z,97815.63
2018-12-02T10:19:16.904Z,97820.05
2018-12-02T10:21:44.354Z,97813.46
2018-12-02T10:24:11.790Z,97813.30
2018-12-02T10:26:40.008Z,97811.98
2018-12-02T10:29:07.462Z,97821.55
2018-12-02T10:31:42.024Z,97815.31
2018-12-02T10:51:19.106Z,97803.23
2018-12-02T10:53:46.568Z,97798.52
2018-12-02T10:56:14.045Z,97803.23
2018-12-02T10:58:49.356Z,97795.02
2018-12-02T11:01:21.746Z,97785.70
2018-12-02T11:03:50.531Z,97793.42
2018-12-02T11:06:18.013Z,97788.34
2018-12-02T11:08:45.431Z,97786.37
2018-12-02T11:11:12.897Z,97785.39
2018-12-02T11:13:40.370Z,97793.40
2018-12-02T11:16:07.824Z,97790.88
2018-12-02T11:18:35.279Z,97795.51
2018-12-02T11:21:02.728Z,97788.98
2018-12-02T11:23:30.202Z,97781.77
2018-12-02T11:25:57.654Z,97785.28
2018-12-02T11:28:25.089Z,97785.92
2018-12-02T11:30:52.536Z,97784.23
2018-12-02T11:33:22.483Z,97790.75
2018-12-02T11:35:50.065Z,97787.47
2018-12-02T11:38:17.554Z,97782.22
2018-12-02T11:40:45.005Z,97785.08
2018-12-02T11:43:22.444Z,97791.93
2018-12-02T11:45:50.167Z,97788.40
2018-12-02T11:48:18.871Z,97790.13
2018-12-02T11:50:46.344Z,97787.18
2018-12-02T11:53:13.784Z,97787.64
2018-12-02T11:55:42.307Z,97794.62
2018-12-02T11:58:09.752Z,97792.20
2018-12-02T12:00:37.191Z,97796.74
2018-12-02T12:03:04.667Z,97799.02
2018-12-02T12:05:34.056Z,97802.61
2018-12-02T12:08:02.624Z,97817.91
2018-12-02T12:10:30.085Z,97807.40
2018-12-02T12:12:59.220Z,97815.97
2018-12-02T12:15:28.260Z,97822.89
2018-12-02T12:17:58.719Z,97804.34
2018-12-02T12:20:26.157Z,97814.69
2018-12-02T12:22:54.222Z,97818.03
2018-12-02T12:25:24.933Z,97818.42
2018-12-02T12:44:56.137Z,97835.09
2018-12-02T12:47:34.298Z,97831.70
2018-12-02T12:50:03.269Z,97834.41
2018-12-02T12:52:30.706Z,97834.80
2018-12-02T12:55:00.122Z,97836.77
2018-12-02T12:57:27.631Z,97838.06
2018-12-02T12:59:55.093Z,97831.23
2018-12-02T13:02:32.856Z,97834.23
2018-12-02T13:05:01.394Z,97838.75
2018-12-02T13:07:28.834Z,97836.59
2018-12-02T13:09:57.048Z,97844.14
2018-12-02T13:12:24.615Z,97839.19
2018-12-02T13:14:54.016Z,97851.55
2018-12-02T13:17:21.518Z,97849.17
2018-12-02T13:19:50.398Z,97854.60
2018-12-02T13:22:17.882Z,97854.43
2018-12-02T13:24:45.328Z,97853.55
2018-12-02T13:27:12.798Z,97853.40
2018-12-02T13:29:40.834Z,97852.71
2018-12-02T13:32:09.219Z,97860.88
2018-12-02T13:34:36.717Z,97868.83
2018-12-02T13:37:05.033Z,97865.44
2018-12-02T13:39:32.479Z,97870.97
2018-12-02T13:41:59.956Z,97873.86
2018-12-02T13:44:27.380Z,97871.58
2018-12-02T13:46:54.846Z,97871.19
2018-12-02T13:49:53.574Z,97868.58
2018-12-02T13:52:52.384Z,97870.73
2018-12-02T13:55:52.113Z,97880.39
2018-12-02T13:58:54.404Z,97884.20
2018-12-02T14:01:52.713Z,97888.02
2018-12-02T14:04:56.261Z,97881.56
2018-12-02T14:07:24.767Z,97886.59
2018-12-02T14:09:55.411Z,97889.04
2018-12-02T14:12:24.011Z,97896.45
2018-12-02T14:14:52.209Z,97897.20
2018-12-02T14:17:21.929Z,97900.36
2018-12-02T14:19:50.009Z,97908.98
2018-12-02T14:22:19.219Z,97906.91
2018-12-02T14:24:48.728Z,97914.42
2018-12-02T14:27:18.013Z,97911.78
2018-12-02T14:29:48.425Z,97915.80
2018-12-02T14:32:16.928Z,97931.02
2018-12-02T14:34:45.944Z,97927.31
2018-12-02T14:37:13.369Z,97930.05
2018-12-02T14:39:43.431Z,97934.95
2018-12-02T14:42:10.903Z,97941.76
2018-12-02T14:44:38.405Z,97942.41
2018-12-02T14:47:06.351Z,97934.80
2018-12-02T14:49:35.855Z,97957.80
2018-12-02T14:52:04.624Z,97947.12
2018-12-02T14:54:33.123Z,97943.45
2018-12-02T14:57:00.608Z,97945.23
2018-12-02T14:59:29.766Z,97956.48
2018-12-02T15:01:57.258Z,97943.06
2018-12-02T15:04:25.198Z,97941.41
2018-12-02T15:06:52.670Z,97944.69
2018-12-02T15:09:20.236Z,97944.66
2018-12-02T15:11:48.238Z,97954.73
2018-12-02T15:14:16.484Z,97947.29
2018-12-02T15:31:02.743Z,97960.01
2018-12-02T15:33:30.204Z,97962.14
2018-12-02T15:35:57.626Z,97970.34
2018-12-02T15:38:25.088Z,97963.36
2018-12-02T15:40:56.448Z,97964.45
2018-12-02T15:43:23.919Z,97971.00
2018-12-02T15:45:51.830Z,97966.57
2018-12-02T15:48:19.273Z,97965.05
2018-12-02T15:50:50.406Z,97964.33
2018-12-02T16:10:21.386Z,97971.59
2018-12-02T16:12:52.507Z,97977.69
2018-12-02T16:15:21.105Z,97973.95
2018-12-02T16:17:51.463Z,97980.30
2018-12-02T16:20:21.786Z,97979.24
2018-12-02T16:22:51.314Z,97971.97
2018-12-02T16:25:24.873Z,97980.19
2018-12-02T16:27:53.589Z,97975.55
2018-12-02T16:30:22.309Z,97970.06
2018-12-02T16:32:50.933Z,97971.00
2018-12-02T16:35:19.506Z,97983.33
2018-12-02T16:37:47.991Z,97968.72
2018-12-02T16:40:22.586Z,97969.67
2018-12-02T16:42:51.701Z,97972.08
2018-12-02T16:45:20.147Z,97970.06
2018-12-02T16:47:48.979Z,97968.47
2018-12-02T16:50:17.593Z,97965.70
2018-12-02T16:52:47.932Z,97978.94
2018-12-02T16:55:16.490Z,97968.63
2018-12-02T16:57:48.040Z,97974.94
2018-12-02T17:00:16.270Z,97979.55
2018-12-02T17:02:43.741Z,97972.11
2018-12-02T17:05:11.309Z,97975.88
2018-12-02T17:07:39.566Z,97988.08
2018-12-02T17:10:07.015Z,97985.64
2018-12-02T17:12:34.484Z,97986.58
2018-12-02T17:15:02.654Z,97997.58
2018-12-02T17:17:34.510Z,97986.84
2018-12-02T17:20:02.990Z,97992.27
2018-12-02T17:22:30.504Z,97979.39
2018-12-02T17:24:57.962Z,97987.56
2018-12-02T17:27:26.921Z,97974.52
2018-12-02T17:29:55.024Z,97980.44
2018-12-02T17:32:23.202Z,97986.30
2018-12-02T17:34:50.679Z,97985.58
2018-12-02T17:37:18.359Z,97990.52
2018-12-02T17:39:45.960Z,97988.28
2018-12-02T17:42:16.532Z,97983.78
2018-12-02T17:44:45.814Z,97993.97
2018-12-02T17:47:13.428Z,97991.92
2018-12-02T17:49:40.922Z,97987.89
2018-12-02T17:52:08.386Z,97991.44
2018-12-02T17:54:35.868Z,97990.03
2018-12-02T17:57:03.357Z,97994.97
2018-12-02T17:59:30.919Z,97991.27
2018-12-02T18:01:58.416Z,98000.83
2018-12-02T18:04:25.867Z,97994.74
2018-12-02T18:06:53.676Z,97994.91
2018-12-02T18:09:21.649Z,97995.66
2018-12-02T18:11:49.168Z,98005.58
2018-12-02T18:14:19.152Z,98000.66
2018-12-02T18:16:50.180Z,98004.09
2018-12-02T18:19:16.011Z,98014.55
2018-12-02T18:21:44.199Z,98015.14
2018-12-02T18:24:13.040Z,98020.66
2018-12-02T18:26:41.414Z,98023.89
2018-12-02T18:29:09.002Z,98019.95
2018-12-02T18:31:36.450Z,98024.75
2018-12-02T18:34:05.496Z,98041.91
2018-12-02T18:36:32.929Z,98032.84
2018-12-02T18:39:00.930Z,98033.61
2018-12-02T18:41:28.401Z,98034.63
2018-12-02T18:43:55.843Z,98043.70
2018-12-02T18:46:23.344Z,98043.83
2018-12-02T18:51:24.284Z,98051.02
2018-12-02T18:53:51.773Z,98051.97
2018-12-02T18:56:19.261Z,98052.33
2018-12-02T18:58:46.714Z,98048.88
2018-12-02T19:01:14.219Z,98057.37
2018-12-02T19:03:41.754Z,98056.55
2018-12-02T19:06:10.227Z,98053.38
2018-12-02T19:08:39.735Z,98047.13
2018-12-02T19:11:09.066Z,98057.66
2018-12-02T19:13:43.351Z,98055.22
2018-12-02T19:16:05.603Z,98047.21
2018-12-02T19:18:33.174Z,98057.42
2018-12-02T19:21:00.647Z,98052.03
2018-12-02T19:23:28.175Z,98062.43
2018-12-02T19:25:57.165Z,98054.56
2018-12-02T19:28:24.651Z,98054.42
2018-12-02T19:30:53.213Z,98050.98
2018-12-02T19:33:20.754Z,98059.88
2018-12-02T19:35:48.228Z,98048.16
2018-12-02T19:38:15.713Z,98055.94
2018-12-02T19:40:44.043Z,98051.50
2018-12-02T19:43:11.501Z,98042.98
2018-12-02T19:45:39.778Z,98055.08
2018-12-02T19:48:07.219Z,98050.59
2018-12-02T19:50:35.526Z,98048.31
2018-12-02T19:53:02.995Z,98053.72
2018-12-02T19:55:30.429Z,98050.28
2018-12-02T19:57:57.909Z,98046.81
2018-12-02T20:00:25.351Z,98045.47
2018-12-02T20:02:52.803Z,98046.38
2018-12-02T20:05:20.253Z,98044.16
2018-12-02T20:07:47.734Z,98036.30
2018-12-02T20:10:15.193Z,98037.28
2018-12-02T20:12:42.639Z,98035.42
2018-12-02T20:15:10.116Z,98035.52
2018-12-02T20:17:37.560Z,98041.27
2018-12-02T20:20:05.042Z,98043.05
2018-12-02T20:22:32.516Z,98035.49
2018-12-02T20:24:59.992Z,98042.97
2018-12-02T20:27:27.435Z,98043.88
2018-12-02T20:29:54.883Z,98046.74
2018-12-02T20:32:22.334Z,98043.10
2018-12-02T20:34:49.828Z,98047.14
2018-12-02T20:37:18.084Z,98050.91
2018-12-02T20:39:46.008Z,98036.73
2018-12-02T20:42:13.454Z,98040.25
2018-12-02T20:44:40.890Z,98029.55
2018-12-02T20:47:08.346Z,98024.47
2018-12-02T20:49:35.803Z,98027.45
2018-12-02T20:52:03.276Z,98026.45
2018-12-02T20:54:30.726Z,98029.52
2018-12-02T20:56:58.181Z,98019.86
2018-12-02T20:59:25.664Z,98024.80
2018-12-02T21:01:53.137Z,98028.79
2018-12-02T21:04:20.563Z,98026.72
2018-12-02T21:06:48.012Z,98020.22
2018-12-02T21:09:15.455Z,98015.81
2018-12-02T21:11:44.697Z,98028.45
2018-12-02T21:14:12.152Z,98015.30
2018-12-02T21:16:41.895Z,98012.12
2018-12-02T21:19:09.329Z,98021.80
2018-12-02T21:21:38.156Z,98019.22
2018-12-02T21:24:05.617Z,98009.02
2018-12-02T21:26:34.029Z,98010.82
2018-12-02T21:29:01.476Z,98011.99
2018-12-02T21:31:28.969Z,97998.80
2018-12-02T21:33:56.411Z,97998.47
2018-12-02T21:36:24.995Z,97998.28
2018-12-02T21:38:52.541Z,98000.22
2018-12-02T21:41:19.995Z,97992.34
2018-12-02T21:43:47.451Z,98001.80
2018-12-02T21:46:14.891Z,97992.89
2018-12-02T21:48:42.326Z,97994.88
2018-12-02T21:51:09.784Z,97991.27
2018-12-02T21:53:37.245Z,97990.70
2018-12-02T21:56:04.666Z,97984.67
2018-12-02T21:58:32.148Z,97986.72
2018-12-02T22:01:00.339Z,97981.82
2018-12-02T22:03:27.790Z,97980.20
2018-12-02T22:05:55.230Z,97994.94
2018-12-02T22:08:23.093Z,97991.07
2018-12-02T22:10:51.521Z,97987.08
2018-12-02T22:13:20.025Z,97975.73
2018-12-02T22:15:47.446Z,97984.13
2018-12-02T22:18:15.414Z,97983.87
2018-12-02T22:20:47.541Z,97986.38
2018-12-02T22:23:15.750Z,97987.73
2018-12-02T22:25:43.197Z,97981.95
2018-12-02T22:28:13.269Z,97983.24
2018-12-02T22:30:40.807Z,97987.22
2018-12-02T22:33:08.641Z,97988.81
2018-12-02T22:35:36.107Z,97986.48
2018-12-02T22:38:04.193Z,97992.62
2018-12-02T22:40:31.666Z,97991.16
2018-12-02T22:42:59.120Z,97988.24
2018-12-02T22:45:26.594Z,97990.89
2018-12-02T22:47:54.035Z,97992.23
2018-12-02T22:50:21.500Z,97992.43
2018-12-02T22:52:48.940Z,97987.33
2018-12-02T22:55:16.425Z,97989.41
2018-12-02T22:57:44.265Z,97985.20
2018-12-02T23:00:11.728Z,97982.83
2018-12-02T23:02:39.194Z,97981.98
2018-12-02T23:05:06.669Z,97981.14
2018-12-02T23:07:35.272Z,97980.03
2018-12-02T23:10:02.808Z,97976.92
2018-12-02T23:12:32.444Z,97980.29
2018-12-02T23:14:59.980Z,97975.59
2018-12-02T23:17:29.045Z,97982.73
2018-12-02T23:19:56.590Z,97975.80
2018-12-02T23:22:25.548Z,97981.98
2018-12-02T23:24:53.124Z,97980.03
2018-12-02T23:27:20.580Z,97984.62
2018-12-02T23:29:48.019Z,97986.38
2018-12-02T23:32:16.461Z,97987.61
2018-12-02T23:34:45.777Z,97990.05
2018-12-02T23:37:20.578Z,97988.48
2018-12-02T23:39:48.801Z,97982.12
2018-12-02T23:42:17.080Z,97980.36
2018-12-02T23:44:45.559Z,97978.31
2018-12-02T23:47:13.068Z,97977.95
2018-12-02T23:49:42.118Z,97973.83
2018-12-02T23:52:09.644Z,97963.78
2018-12-02T23:54:37.130Z,97963.03
2018-12-02T23:57:04.590Z,97955.91
2018-12-02T23:59:32.036Z,97950.34
